sensor_id;sensor_type;location;lat;lon;timestamp;P1;durP1;ratioP1;P2;durP2;ratioP2
37203;SDS011;23098;48.054;10.636;2023-07-31T00:01:40;3.55;;;1.88;;
37203;SDS011;23098;48.054;10.636;2023-07-31T00:04:05;3.10;;;1.90;;
37203;SDS011;23098;48.054;10.636;2023-07-31T00:06:31;4.32;;;1.95;;
37203;SDS011;23098;48.054;10.636;2023-07-31T00:08:56;5.40;;;2.40;;
37203;SDS011;23098;48.054;10.636;2023-07-31T00:11:22;3.63;;;1.95;;
37203;SDS011;23098;48.054;10.636;2023-07-31T00:13:47;4.47;;;2.00;;
37203;SDS011;23098;48.054;10.636;2023-07-31T00:16:13;3.50;;;2.30;;
37203;SDS011;23098;48.054;10.636;2023-07-31T00:18:38;4.07;;;2.40;;
37203;SDS011;23098;48.054;10.636;2023-07-31T00:21:04;3.33;;;2.00;;
37203;SDS011;23098;48.054;10.636;2023-07-31T00:23:29;4.57;;;2.22;;
37203;SDS011;23098;48.054;10.636;2023-07-31T00:25:55;4.30;;;2.10;;
37203;SDS011;23098;48.054;10.636;2023-07-31T00:28:21;3.10;;;2.10;;
37203;SDS011;23098;48.054;10.636;2023-07-31T00:30:46;3.65;;;2.15;;
37203;SDS011;23098;48.054;10.636;2023-07-31T00:33:12;3.88;;;2.20;;
37203;SDS011;23098;48.054;10.636;2023-07-31T00:35:37;4.35;;;2.05;;
37203;SDS011;23098;48.054;10.636;2023-07-31T00:38:03;5.65;;;2.13;;
37203;SDS011;23098;48.054;10.636;2023-07-31T00:40:28;5.38;;;2.30;;
37203;SDS011;23098;48.054;10.636;2023-07-31T00:42:54;4.47;;;2.15;;
37203;SDS011;23098;48.054;10.636;2023-07-31T00:45:19;4.30;;;2.15;;
37203;SDS011;23098;48.054;10.636;2023-07-31T00:47:47;3.00;;;2.25;;
37203;SDS011;23098;48.054;10.636;2023-07-31T00:50:14;4.60;;;2.05;;
37203;SDS011;23098;48.054;10.636;2023-07-31T00:52:39;8.27;;;2.75;;
37203;SDS011;23098;48.054;10.636;2023-07-31T00:55:05;4.07;;;2.33;;
37203;SDS011;23098;48.054;10.636;2023-07-31T00:57:31;3.03;;;1.88;;
37203;SDS011;23098;48.054;10.636;2023-07-31T00:59:58;4.45;;;2.10;;
37203;SDS011;23098;48.054;10.636;2023-07-31T01:02:25;4.05;;;2.10;;
37203;SDS011;23098;48.054;10.636;2023-07-31T01:04:50;5.78;;;2.30;;
37203;SDS011;23098;48.054;10.636;2023-07-31T01:07:19;4.00;;;2.00;;
37203;SDS011;23098;48.054;10.636;2023-07-31T01:10:04;4.03;;;2.00;;
37203;SDS011;23098;48.054;10.636;2023-07-31T01:12:39;5.35;;;2.45;;
37203;SDS011;23098;48.054;10.636;2023-07-31T01:15:07;5.28;;;2.35;;
37203;SDS011;23098;48.054;10.636;2023-07-31T01:17:39;4.13;;;2.20;;
37203;SDS011;23098;48.054;10.636;2023-07-31T01:20:09;4.70;;;2.20;;
37203;SDS011;23098;48.054;10.636;2023-07-31T01:28:23;3.70;;;2.10;;
37203;SDS011;23098;48.054;10.636;2023-07-31T01:30:55;5.07;;;2.05;;
37203;SDS011;23098;48.054;10.636;2023-07-31T01:33:25;5.38;;;2.50;;
37203;SDS011;23098;48.054;10.636;2023-07-31T01:35:50;4.82;;;2.20;;
37203;SDS011;23098;48.054;10.636;2023-07-31T01:38:20;4.43;;;1.90;;
37203;SDS011;23098;48.054;10.636;2023-07-31T01:40:49;5.03;;;1.90;;
37203;SDS011;23098;48.054;10.636;2023-07-31T01:43:17;3.60;;;1.83;;
37203;SDS011;23098;48.054;10.636;2023-07-31T01:45:43;3.40;;;2.10;;
37203;SDS011;23098;48.054;10.636;2023-07-31T01:48:09;3.47;;;2.20;;
37203;SDS011;23098;48.054;10.636;2023-07-31T01:50:34;3.55;;;2.10;;
37203;SDS011;23098;48.054;10.636;2023-07-31T01:53:00;6.32;;;2.25;;
37203;SDS011;23098;48.054;10.636;2023-07-31T01:55:25;3.63;;;2.30;;
37203;SDS011;23098;48.054;10.636;2023-07-31T01:57:51;5.07;;;2.53;;
37203;SDS011;23098;48.054;10.636;2023-07-31T02:00:17;4.78;;;2.25;;
37203;SDS011;23098;48.054;10.636;2023-07-31T02:02:43;3.93;;;2.10;;
37203;SDS011;23098;48.054;10.636;2023-07-31T02:05:09;4.28;;;2.25;;
37203;SDS011;23098;48.054;10.636;2023-07-31T02:07:34;3.15;;;2.20;;
37203;SDS011;23098;48.054;10.636;2023-07-31T02:10:00;2.45;;;2.00;;
37203;SDS011;23098;48.054;10.636;2023-07-31T02:12:25;5.32;;;2.30;;
37203;SDS011;23098;48.054;10.636;2023-07-31T02:14:51;3.97;;;2.20;;
37203;SDS011;23098;48.054;10.636;2023-07-31T02:17:17;6.85;;;2.47;;
37203;SDS011;23098;48.054;10.636;2023-07-31T02:19:42;4.97;;;2.50;;
37203;SDS011;23098;48.054;10.636;2023-07-31T02:22:08;4.43;;;2.40;;
37203;SDS011;23098;48.054;10.636;2023-07-31T02:24:33;4.30;;;2.20;;
37203;SDS011;23098;48.054;10.636;2023-07-31T02:26:59;4.95;;;2.70;;
37203;SDS011;23098;48.054;10.636;2023-07-31T02:29:24;6.72;;;2.60;;
37203;SDS011;23098;48.054;10.636;2023-07-31T02:31:50;5.07;;;2.38;;
37203;SDS011;23098;48.054;10.636;2023-07-31T02:34:15;5.45;;;2.40;;
37203;SDS011;23098;48.054;10.636;2023-07-31T02:36:41;3.60;;;2.58;;
37203;SDS011;23098;48.054;10.636;2023-07-31T02:39:07;6.00;;;2.47;;
37203;SDS011;23098;48.054;10.636;2023-07-31T02:41:32;3.80;;;2.50;;
37203;SDS011;23098;48.054;10.636;2023-07-31T02:43:58;3.38;;;2.45;;
37203;SDS011;23098;48.054;10.636;2023-07-31T02:46:23;5.55;;;2.50;;
37203;SDS011;23098;48.054;10.636;2023-07-31T02:48:49;3.80;;;2.72;;
37203;SDS011;23098;48.054;10.636;2023-07-31T02:51:16;3.58;;;2.50;;
37203;SDS011;23098;48.054;10.636;2023-07-31T02:53:42;3.85;;;2.60;;
37203;SDS011;23098;48.054;10.636;2023-07-31T02:56:07;4.25;;;2.70;;
37203;SDS011;23098;48.054;10.636;2023-07-31T02:58:33;3.10;;;2.17;;
37203;SDS011;23098;48.054;10.636;2023-07-31T03:00:58;3.70;;;2.40;;
37203;SDS011;23098;48.054;10.636;2023-07-31T03:03:24;8.55;;;2.30;;
37203;SDS011;23098;48.054;10.636;2023-07-31T03:05:49;4.43;;;2.65;;
37203;SDS011;23098;48.054;10.636;2023-07-31T03:08:15;5.65;;;2.60;;
37203;SDS011;23098;48.054;10.636;2023-07-31T03:10:41;6.38;;;2.50;;
37203;SDS011;23098;48.054;10.636;2023-07-31T03:13:06;3.47;;;2.53;;
37203;SDS011;23098;48.054;10.636;2023-07-31T03:15:32;5.35;;;2.60;;
37203;SDS011;23098;48.054;10.636;2023-07-31T03:17:57;4.18;;;2.40;;
37203;SDS011;23098;48.054;10.636;2023-07-31T03:20:23;4.82;;;2.60;;
37203;SDS011;23098;48.054;10.636;2023-07-31T03:22:49;5.28;;;2.42;;
37203;SDS011;23098;48.054;10.636;2023-07-31T03:25:14;4.78;;;2.53;;
37203;SDS011;23098;48.054;10.636;2023-07-31T03:27:40;3.47;;;2.50;;
37203;SDS011;23098;48.054;10.636;2023-07-31T03:30:05;3.97;;;2.35;;
37203;SDS011;23098;48.054;10.636;2023-07-31T03:32:31;5.35;;;2.53;;
37203;SDS011;23098;48.054;10.636;2023-07-31T03:34:57;6.65;;;2.50;;
37203;SDS011;23098;48.054;10.636;2023-07-31T03:37:23;6.15;;;2.55;;
37203;SDS011;23098;48.054;10.636;2023-07-31T03:39:48;3.78;;;2.40;;
37203;SDS011;23098;48.054;10.636;2023-07-31T03:42:14;4.45;;;2.50;;
37203;SDS011;23098;48.054;10.636;2023-07-31T03:44:40;3.70;;;2.45;;
37203;SDS011;23098;48.054;10.636;2023-07-31T03:47:05;5.07;;;2.95;;
37203;SDS011;23098;48.054;10.636;2023-07-31T03:49:31;8.43;;;2.63;;
37203;SDS011;23098;48.054;10.636;2023-07-31T03:51:56;5.97;;;2.60;;
37203;SDS011;23098;48.054;10.636;2023-07-31T03:54:22;4.38;;;2.58;;
37203;SDS011;23098;48.054;10.636;2023-07-31T03:56:47;5.07;;;2.58;;
37203;SDS011;23098;48.054;10.636;2023-07-31T03:59:14;4.65;;;2.60;;
37203;SDS011;23098;48.054;10.636;2023-07-31T04:01:40;6.50;;;2.53;;
37203;SDS011;23098;48.054;10.636;2023-07-31T04:04:05;6.18;;;2.80;;
37203;SDS011;23098;48.054;10.636;2023-07-31T04:06:31;6.45;;;2.75;;
37203;SDS011;23098;48.054;10.636;2023-07-31T04:08:57;5.80;;;2.92;;
37203;SDS011;23098;48.054;10.636;2023-07-31T04:11:22;5.28;;;3.05;;
37203;SDS011;23098;48.054;10.636;2023-07-31T04:13:48;3.78;;;2.60;;
37203;SDS011;23098;48.054;10.636;2023-07-31T04:16:13;5.57;;;2.40;;
37203;SDS011;23098;48.054;10.636;2023-07-31T04:18:39;4.82;;;2.50;;
37203;SDS011;23098;48.054;10.636;2023-07-31T04:21:05;5.63;;;2.65;;
37203;SDS011;23098;48.054;10.636;2023-07-31T04:23:30;4.45;;;2.38;;
37203;SDS011;23098;48.054;10.636;2023-07-31T04:25:56;6.22;;;2.08;;
37203;SDS011;23098;48.054;10.636;2023-07-31T04:28:21;6.97;;;2.05;;
37203;SDS011;23098;48.054;10.636;2023-07-31T04:30:47;5.22;;;2.28;;
37203;SDS011;23098;48.054;10.636;2023-07-31T04:33:13;6.20;;;1.88;;
37203;SDS011;23098;48.054;10.636;2023-07-31T04:35:38;5.97;;;2.05;;
37203;SDS011;23098;48.054;10.636;2023-07-31T04:38:04;2.65;;;2.00;;
37203;SDS011;23098;48.054;10.636;2023-07-31T04:40:29;3.70;;;2.00;;
37203;SDS011;23098;48.054;10.636;2023-07-31T04:42:55;4.75;;;1.83;;
37203;SDS011;23098;48.054;10.636;2023-07-31T04:45:21;2.65;;;1.80;;
37203;SDS011;23098;48.054;10.636;2023-07-31T04:47:46;3.72;;;1.58;;
37203;SDS011;23098;48.054;10.636;2023-07-31T04:50:12;3.67;;;1.90;;
37203;SDS011;23098;48.054;10.636;2023-07-31T04:52:37;4.32;;;2.20;;
37203;SDS011;23098;48.054;10.636;2023-07-31T04:55:03;3.13;;;2.20;;
37203;SDS011;23098;48.054;10.636;2023-07-31T04:57:29;3.25;;;1.80;;
37203;SDS011;23098;48.054;10.636;2023-07-31T04:59:54;3.75;;;1.65;;
37203;SDS011;23098;48.054;10.636;2023-07-31T05:02:20;4.18;;;1.70;;
37203;SDS011;23098;48.054;10.636;2023-07-31T05:04:46;4.75;;;1.73;;
37203;SDS011;23098;48.054;10.636;2023-07-31T05:07:11;5.43;;;1.80;;
37203;SDS011;23098;48.054;10.636;2023-07-31T05:09:37;3.15;;;1.77;;
37203;SDS011;23098;48.054;10.636;2023-07-31T05:12:04;3.70;;;1.50;;
37203;SDS011;23098;48.054;10.636;2023-07-31T05:14:30;4.32;;;1.50;;
37203;SDS011;23098;48.054;10.636;2023-07-31T05:16:56;4.75;;;1.90;;
37203;SDS011;23098;48.054;10.636;2023-07-31T05:19:22;4.65;;;1.67;;
37203;SDS011;23098;48.054;10.636;2023-07-31T05:21:47;3.33;;;1.60;;
37203;SDS011;23098;48.054;10.636;2023-07-31T05:24:13;2.47;;;1.50;;
37203;SDS011;23098;48.054;10.636;2023-07-31T05:26:38;3.65;;;1.80;;
37203;SDS011;23098;48.054;10.636;2023-07-31T05:29:04;5.15;;;1.70;;
37203;SDS011;23098;48.054;10.636;2023-07-31T05:31:30;4.57;;;1.52;;
37203;SDS011;23098;48.054;10.636;2023-07-31T05:33:57;3.92;;;1.63;;
37203;SDS011;23098;48.054;10.636;2023-07-31T05:36:22;3.25;;;1.83;;
37203;SDS011;23098;48.054;10.636;2023-07-31T05:38:48;4.05;;;1.67;;
37203;SDS011;23098;48.054;10.636;2023-07-31T05:41:14;4.60;;;1.83;;
37203;SDS011;23098;48.054;10.636;2023-07-31T05:43:39;4.78;;;1.75;;
37203;SDS011;23098;48.054;10.636;2023-07-31T05:46:05;6.55;;;1.90;;
37203;SDS011;23098;48.054;10.636;2023-07-31T05:48:31;6.43;;;1.67;;
37203;SDS011;23098;48.054;10.636;2023-07-31T05:50:59;6.32;;;1.73;;
37203;SDS011;23098;48.054;10.636;2023-07-31T05:53:24;5.03;;;1.70;;
37203;SDS011;23098;48.054;10.636;2023-07-31T05:55:52;5.97;;;1.90;;
37203;SDS011;23098;48.054;10.636;2023-07-31T05:58:17;4.88;;;1.70;;
37203;SDS011;23098;48.054;10.636;2023-07-31T06:00:43;7.53;;;1.70;;
37203;SDS011;23098;48.054;10.636;2023-07-31T06:03:08;6.60;;;1.80;;
37203;SDS011;23098;48.054;10.636;2023-07-31T06:05:34;7.50;;;1.55;;
37203;SDS011;23098;48.054;10.636;2023-07-31T06:08:00;3.60;;;1.75;;
37203;SDS011;23098;48.054;10.636;2023-07-31T06:10:26;7.32;;;1.73;;
37203;SDS011;23098;48.054;10.636;2023-07-31T06:12:51;5.45;;;1.73;;
37203;SDS011;23098;48.054;10.636;2023-07-31T06:15:17;4.13;;;1.42;;
37203;SDS011;23098;48.054;10.636;2023-07-31T06:17:45;3.83;;;1.90;;
37203;SDS011;23098;48.054;10.636;2023-07-31T06:20:11;3.55;;;1.67;;
37203;SDS011;23098;48.054;10.636;2023-07-31T06:22:37;3.33;;;1.70;;
37203;SDS011;23098;48.054;10.636;2023-07-31T06:25:02;4.57;;;1.70;;
37203;SDS011;23098;48.054;10.636;2023-07-31T06:27:28;5.13;;;1.58;;
37203;SDS011;23098;48.054;10.636;2023-07-31T06:29:53;2.67;;;1.50;;
37203;SDS011;23098;48.054;10.636;2023-07-31T06:32:19;2.85;;;1.67;;
37203;SDS011;23098;48.054;10.636;2023-07-31T06:34:45;3.97;;;1.63;;
37203;SDS011;23098;48.054;10.636;2023-07-31T06:37:10;8.27;;;1.70;;
37203;SDS011;23098;48.054;10.636;2023-07-31T06:39:36;4.05;;;1.40;;
37203;SDS011;23098;48.054;10.636;2023-07-31T06:42:02;4.47;;;1.40;;
37203;SDS011;23098;48.054;10.636;2023-07-31T06:44:31;5.00;;;1.30;;
37203;SDS011;23098;48.054;10.636;2023-07-31T06:46:57;4.32;;;1.55;;
37203;SDS011;23098;48.054;10.636;2023-07-31T06:49:25;5.45;;;1.50;;
37203;SDS011;23098;48.054;10.636;2023-07-31T06:51:53;3.05;;;1.30;;
37203;SDS011;23098;48.054;10.636;2023-07-31T06:54:20;2.45;;;1.20;;
37203;SDS011;23098;48.054;10.636;2023-07-31T06:56:49;2.90;;;1.27;;
37203;SDS011;23098;48.054;10.636;2023-07-31T06:59:16;2.83;;;1.13;;
37203;SDS011;23098;48.054;10.636;2023-07-31T07:01:45;5.93;;;1.30;;
37203;SDS011;23098;48.054;10.636;2023-07-31T07:04:10;4.15;;;1.20;;
37203;SDS011;23098;48.054;10.636;2023-07-31T07:06:36;2.33;;;1.27;;
37203;SDS011;23098;48.054;10.636;2023-07-31T07:09:02;5.00;;;1.40;;
37203;SDS011;23098;48.054;10.636;2023-07-31T07:11:28;2.15;;;1.27;;
37203;SDS011;23098;48.054;10.636;2023-07-31T07:13:53;2.47;;;1.20;;
37203;SDS011;23098;48.054;10.636;2023-07-31T07:16:20;2.83;;;1.20;;
37203;SDS011;23098;48.054;10.636;2023-07-31T07:18:46;2.13;;;1.00;;
37203;SDS011;23098;48.054;10.636;2023-07-31T07:21:12;5.28;;;1.30;;
37203;SDS011;23098;48.054;10.636;2023-07-31T07:23:42;3.25;;;1.27;;
37203;SDS011;23098;48.054;10.636;2023-07-31T07:26:07;5.28;;;1.50;;
37203;SDS011;23098;48.054;10.636;2023-07-31T07:28:33;5.18;;;1.73;;
37203;SDS011;23098;48.054;10.636;2023-07-31T07:30:59;5.38;;;1.60;;
37203;SDS011;23098;48.054;10.636;2023-07-31T07:33:24;1.92;;;1.23;;
37203;SDS011;23098;48.054;10.636;2023-07-31T07:35:50;3.95;;;1.40;;
37203;SDS011;23098;48.054;10.636;2023-07-31T07:38:16;4.03;;;1.30;;
37203;SDS011;23098;48.054;10.636;2023-07-31T07:40:42;4.47;;;1.45;;
37203;SDS011;23098;48.054;10.636;2023-07-31T07:43:07;3.78;;;1.48;;
37203;SDS011;23098;48.054;10.636;2023-07-31T07:45:33;10.55;;;1.40;;
37203;SDS011;23098;48.054;10.636;2023-07-31T07:47:58;4.13;;;1.23;;
37203;SDS011;23098;48.054;10.636;2023-07-31T07:50:24;5.13;;;1.60;;
37203;SDS011;23098;48.054;10.636;2023-07-31T07:52:50;4.57;;;1.52;;
37203;SDS011;23098;48.054;10.636;2023-07-31T07:55:15;4.70;;;1.38;;
37203;SDS011;23098;48.054;10.636;2023-07-31T07:57:41;4.32;;;1.50;;
37203;SDS011;23098;48.054;10.636;2023-07-31T08:00:09;3.13;;;1.33;;
37203;SDS011;23098;48.054;10.636;2023-07-31T08:02:35;4.68;;;1.50;;
37203;SDS011;23098;48.054;10.636;2023-07-31T08:05:01;3.67;;;1.60;;
37203;SDS011;23098;48.054;10.636;2023-07-31T08:07:26;3.97;;;1.35;;
37203;SDS011;23098;48.054;10.636;2023-07-31T08:09:52;4.05;;;1.65;;
37203;SDS011;23098;48.054;10.636;2023-07-31T08:12:17;6.28;;;1.35;;
37203;SDS011;23098;48.054;10.636;2023-07-31T08:14:43;3.67;;;1.20;;
37203;SDS011;23098;48.054;10.636;2023-07-31T08:17:08;3.45;;;1.48;;
37203;SDS011;23098;48.054;10.636;2023-07-31T08:19:34;6.68;;;1.33;;
37203;SDS011;23098;48.054;10.636;2023-07-31T08:21:59;3.83;;;1.70;;
37203;SDS011;23098;48.054;10.636;2023-07-31T08:24:25;4.60;;;1.30;;
37203;SDS011;23098;48.054;10.636;2023-07-31T08:26:50;3.47;;;1.45;;
37203;SDS011;23098;48.054;10.636;2023-07-31T08:29:16;3.22;;;1.30;;
37203;SDS011;23098;48.054;10.636;2023-07-31T08:31:41;4.60;;;1.60;;
37203;SDS011;23098;48.054;10.636;2023-07-31T08:34:07;3.25;;;1.50;;
37203;SDS011;23098;48.054;10.636;2023-07-31T08:36:32;1.95;;;1.13;;
37203;SDS011;23098;48.054;10.636;2023-07-31T08:38:58;4.00;;;1.50;;
37203;SDS011;23098;48.054;10.636;2023-07-31T08:41:24;3.80;;;1.23;;
37203;SDS011;23098;48.054;10.636;2023-07-31T08:43:50;9.10;;;1.70;;
37203;SDS011;23098;48.054;10.636;2023-07-31T08:46:18;6.15;;;1.42;;
37203;SDS011;23098;48.054;10.636;2023-07-31T08:48:45;2.40;;;1.45;;
37203;SDS011;23098;48.054;10.636;2023-07-31T08:51:13;4.07;;;1.40;;
37203;SDS011;23098;48.054;10.636;2023-07-31T08:53:39;3.83;;;1.30;;
37203;SDS011;23098;48.054;10.636;2023-07-31T08:56:05;2.30;;;1.40;;
37203;SDS011;23098;48.054;10.636;2023-07-31T08:58:32;2.92;;;1.20;;
37203;SDS011;23098;48.054;10.636;2023-07-31T09:00:58;7.25;;;1.70;;
37203;SDS011;23098;48.054;10.636;2023-07-31T09:03:26;5.43;;;1.75;;
37203;SDS011;23098;48.054;10.636;2023-07-31T09:05:53;5.43;;;1.55;;
37203;SDS011;23098;48.054;10.636;2023-07-31T09:08:20;2.05;;;1.30;;
37203;SDS011;23098;48.054;10.636;2023-07-31T09:10:46;4.20;;;1.30;;
37203;SDS011;23098;48.054;10.636;2023-07-31T09:13:14;2.30;;;1.30;;
37203;SDS011;23098;48.054;10.636;2023-07-31T09:15:43;2.95;;;1.33;;
37203;SDS011;23098;48.054;10.636;2023-07-31T09:18:10;4.35;;;1.50;;
37203;SDS011;23098;48.054;10.636;2023-07-31T09:20:35;6.43;;;1.50;;
37203;SDS011;23098;48.054;10.636;2023-07-31T09:23:06;4.93;;;1.48;;
37203;SDS011;23098;48.054;10.636;2023-07-31T09:25:36;5.93;;;1.40;;
37203;SDS011;23098;48.054;10.636;2023-07-31T09:28:06;5.93;;;1.35;;
37203;SDS011;23098;48.054;10.636;2023-07-31T09:30:54;5.10;;;1.65;;
37203;SDS011;23098;48.054;10.636;2023-07-31T09:33:19;4.45;;;1.40;;
37203;SDS011;23098;48.054;10.636;2023-07-31T09:35:44;5.25;;;1.58;;
37203;SDS011;23098;48.054;10.636;2023-07-31T09:38:13;4.22;;;1.40;;
37203;SDS011;23098;48.054;10.636;2023-07-31T09:40:40;5.07;;;1.63;;
37203;SDS011;23098;48.054;10.636;2023-07-31T09:43:08;3.20;;;1.35;;
37203;SDS011;23098;48.054;10.636;2023-07-31T09:45:36;3.38;;;1.42;;
37203;SDS011;23098;48.054;10.636;2023-07-31T09:48:03;7.55;;;1.90;;
37203;SDS011;23098;48.054;10.636;2023-07-31T09:50:31;4.50;;;1.67;;
37203;SDS011;23098;48.054;10.636;2023-07-31T09:52:57;5.45;;;1.63;;
37203;SDS011;23098;48.054;10.636;2023-07-31T09:55:23;4.07;;;1.60;;
37203;SDS011;23098;48.054;10.636;2023-07-31T09:57:49;2.72;;;1.50;;
37203;SDS011;23098;48.054;10.636;2023-07-31T10:00:16;4.40;;;1.75;;
37203;SDS011;23098;48.054;10.636;2023-07-31T10:02:46;4.05;;;2.10;;
37203;SDS011;23098;48.054;10.636;2023-07-31T10:05:15;6.18;;;1.98;;
37203;SDS011;23098;48.054;10.636;2023-07-31T10:07:42;5.57;;;2.05;;
37203;SDS011;23098;48.054;10.636;2023-07-31T10:10:10;3.78;;;1.63;;
37203;SDS011;23098;48.054;10.636;2023-07-31T10:12:36;3.97;;;1.90;;
37203;SDS011;23098;48.054;10.636;2023-07-31T10:15:03;6.75;;;1.92;;
37203;SDS011;23098;48.054;10.636;2023-07-31T10:17:30;3.55;;;1.77;;
37203;SDS011;23098;48.054;10.636;2023-07-31T10:19:56;4.13;;;1.95;;
37203;SDS011;23098;48.054;10.636;2023-07-31T10:22:26;3.58;;;1.73;;
37203;SDS011;23098;48.054;10.636;2023-07-31T10:24:52;4.22;;;1.73;;
37203;SDS011;23098;48.054;10.636;2023-07-31T10:27:19;8.30;;;2.00;;
37203;SDS011;23098;48.054;10.636;2023-07-31T10:29:45;4.63;;;1.60;;
37203;SDS011;23098;48.054;10.636;2023-07-31T10:32:12;3.58;;;1.60;;
37203;SDS011;23098;48.054;10.636;2023-07-31T10:34:40;4.13;;;1.38;;
37203;SDS011;23098;48.054;10.636;2023-07-31T10:39:59;3.15;;;1.58;;
37203;SDS011;23098;48.054;10.636;2023-07-31T10:42:29;3.80;;;1.73;;
37203;SDS011;23098;48.054;10.636;2023-07-31T10:45:00;5.85;;;1.60;;
37203;SDS011;23098;48.054;10.636;2023-07-31T10:47:31;4.88;;;1.50;;
37203;SDS011;23098;48.054;10.636;2023-07-31T10:50:18;3.20;;;1.60;;
37203;SDS011;23098;48.054;10.636;2023-07-31T10:52:52;3.45;;;1.40;;
37203;SDS011;23098;48.054;10.636;2023-07-31T10:58:08;2.47;;;1.70;;
37203;SDS011;23098;48.054;10.636;2023-07-31T11:00:38;2.63;;;1.45;;
37203;SDS011;23098;48.054;10.636;2023-07-31T11:03:18;7.22;;;1.52;;
37203;SDS011;23098;48.054;10.636;2023-07-31T11:05:50;8.30;;;1.70;;
37203;SDS011;23098;48.054;10.636;2023-07-31T11:08:27;4.50;;;1.90;;
37203;SDS011;23098;48.054;10.636;2023-07-31T11:13:47;2.88;;;1.50;;
37203;SDS011;23098;48.054;10.636;2023-07-31T11:16:14;3.97;;;1.73;;
37203;SDS011;23098;48.054;10.636;2023-07-31T11:18:41;4.45;;;1.70;;
37203;SDS011;23098;48.054;10.636;2023-07-31T11:21:11;3.72;;;1.60;;
37203;SDS011;23098;48.054;10.636;2023-07-31T11:23:47;3.03;;;1.60;;
37203;SDS011;23098;48.054;10.636;2023-07-31T11:26:21;5.75;;;1.42;;
37203;SDS011;23098;48.054;10.636;2023-07-31T11:28:49;4.75;;;1.73;;
37203;SDS011;23098;48.054;10.636;2023-07-31T11:31:15;4.50;;;1.95;;
37203;SDS011;23098;48.054;10.636;2023-07-31T11:33:42;3.55;;;1.50;;
37203;SDS011;23098;48.054;10.636;2023-07-31T11:36:17;3.53;;;1.50;;
37203;SDS011;23098;48.054;10.636;2023-07-31T11:38:44;4.13;;;1.75;;
37203;SDS011;23098;48.054;10.636;2023-07-31T11:41:09;2.38;;;1.60;;
37203;SDS011;23098;48.054;10.636;2023-07-31T11:43:35;4.70;;;1.45;;
37203;SDS011;23098;48.054;10.636;2023-07-31T11:46:03;4.18;;;1.70;;
37203;SDS011;23098;48.054;10.636;2023-07-31T11:48:31;2.92;;;1.45;;
37203;SDS011;23098;48.054;10.636;2023-07-31T11:51:04;6.38;;;1.63;;
37203;SDS011;23098;48.054;10.636;2023-07-31T11:53:31;4.75;;;1.63;;
37203;SDS011;23098;48.054;10.636;2023-07-31T11:56:01;5.55;;;2.17;;
37203;SDS011;23098;48.054;10.636;2023-07-31T11:58:31;7.00;;;1.98;;
37203;SDS011;23098;48.054;10.636;2023-07-31T12:00:59;3.17;;;1.65;;
37203;SDS011;23098;48.054;10.636;2023-07-31T12:03:25;2.17;;;1.55;;
37203;SDS011;23098;48.054;10.636;2023-07-31T12:05:52;5.78;;;1.60;;
37203;SDS011;23098;48.054;10.636;2023-07-31T12:08:18;4.97;;;1.77;;
37203;SDS011;23098;48.054;10.636;2023-07-31T12:10:46;3.78;;;1.50;;
37203;SDS011;23098;48.054;10.636;2023-07-31T12:13:24;5.20;;;1.50;;
37203;SDS011;23098;48.054;10.636;2023-07-31T12:15:55;2.50;;;1.50;;
37203;SDS011;23098;48.054;10.636;2023-07-31T12:18:22;2.03;;;1.23;;
37203;SDS011;23098;48.054;10.636;2023-07-31T12:20:53;3.92;;;1.70;;
37203;SDS011;23098;48.054;10.636;2023-07-31T12:23:30;4.40;;;1.63;;
37203;SDS011;23098;48.054;10.636;2023-07-31T12:26:00;3.58;;;1.25;;
37203;SDS011;23098;48.054;10.636;2023-07-31T12:28:29;2.60;;;1.42;;
37203;SDS011;23098;48.054;10.636;2023-07-31T12:30:59;4.40;;;1.70;;
37203;SDS011;23098;48.054;10.636;2023-07-31T12:33:30;4.40;;;1.50;;
37203;SDS011;23098;48.054;10.636;2023-07-31T12:35:57;4.38;;;1.80;;
37203;SDS011;23098;48.054;10.636;2023-07-31T12:38:23;5.07;;;1.60;;
37203;SDS011;23098;48.054;10.636;2023-07-31T12:40:48;2.25;;;1.48;;
37203;SDS011;23098;48.054;10.636;2023-07-31T12:43:15;6.20;;;1.75;;
37203;SDS011;23098;48.054;10.636;2023-07-31T12:45:41;5.85;;;1.98;;
37203;SDS011;23098;48.054;10.636;2023-07-31T12:48:06;2.78;;;1.42;;
37203;SDS011;23098;48.054;10.636;2023-07-31T12:50:32;3.40;;;1.50;;
37203;SDS011;23098;48.054;10.636;2023-07-31T12:52:58;3.50;;;1.40;;
37203;SDS011;23098;48.054;10.636;2023-07-31T12:55:23;3.83;;;1.67;;
37203;SDS011;23098;48.054;10.636;2023-07-31T12:57:49;3.78;;;1.55;;
37203;SDS011;23098;48.054;10.636;2023-07-31T13:00:15;1.90;;;1.20;;
37203;SDS011;23098;48.054;10.636;2023-07-31T13:02:41;1.77;;;1.20;;
37203;SDS011;23098;48.054;10.636;2023-07-31T13:05:06;6.13;;;1.20;;
37203;SDS011;23098;48.054;10.636;2023-07-31T13:07:32;2.97;;;1.40;;
37203;SDS011;23098;48.054;10.636;2023-07-31T13:09:59;3.70;;;1.77;;
37203;SDS011;23098;48.054;10.636;2023-07-31T13:12:24;4.47;;;1.70;;
37203;SDS011;23098;48.054;10.636;2023-07-31T13:14:50;2.28;;;1.50;;
37203;SDS011;23098;48.054;10.636;2023-07-31T13:17:16;3.33;;;1.45;;
37203;SDS011;23098;48.054;10.636;2023-07-31T13:19:42;2.85;;;1.40;;
37203;SDS011;23098;48.054;10.636;2023-07-31T13:22:08;2.75;;;1.30;;
37203;SDS011;23098;48.054;10.636;2023-07-31T13:24:33;3.95;;;1.60;;
37203;SDS011;23098;48.054;10.636;2023-07-31T13:26:59;4.93;;;1.58;;
37203;SDS011;23098;48.054;10.636;2023-07-31T13:29:24;2.17;;;1.38;;
37203;SDS011;23098;48.054;10.636;2023-07-31T13:31:50;2.60;;;1.55;;
37203;SDS011;23098;48.054;10.636;2023-07-31T13:34:17;4.50;;;1.63;;
37203;SDS011;23098;48.054;10.636;2023-07-31T13:36:42;4.72;;;1.60;;
37203;SDS011;23098;48.054;10.636;2023-07-31T13:39:08;3.17;;;1.40;;
37203;SDS011;23098;48.054;10.636;2023-07-31T13:41:33;3.08;;;1.80;;
37203;SDS011;23098;48.054;10.636;2023-07-31T13:43:59;5.95;;;1.65;;
37203;SDS011;23098;48.054;10.636;2023-07-31T13:46:24;3.70;;;1.50;;
37203;SDS011;23098;48.054;10.636;2023-07-31T13:48:50;6.65;;;1.35;;
37203;SDS011;23098;48.054;10.636;2023-07-31T13:51:19;2.25;;;1.30;;
37203;SDS011;23098;48.054;10.636;2023-07-31T13:53:45;4.07;;;1.50;;
37203;SDS011;23098;48.054;10.636;2023-07-31T13:56:10;3.58;;;1.30;;
37203;SDS011;23098;48.054;10.636;2023-07-31T13:58:36;2.60;;;1.50;;
37203;SDS011;23098;48.054;10.636;2023-07-31T14:01:02;10.50;;;1.48;;
37203;SDS011;23098;48.054;10.636;2023-07-31T14:03:28;4.57;;;1.45;;
37203;SDS011;23098;48.054;10.636;2023-07-31T14:05:54;4.28;;;1.42;;
37203;SDS011;23098;48.054;10.636;2023-07-31T14:08:20;5.88;;;1.48;;
37203;SDS011;23098;48.054;10.636;2023-07-31T14:10:46;5.50;;;1.40;;
37203;SDS011;23098;48.054;10.636;2023-07-31T14:13:12;2.72;;;1.80;;
37203;SDS011;23098;48.054;10.636;2023-07-31T14:15:37;3.40;;;1.30;;
37203;SDS011;23098;48.054;10.636;2023-07-31T14:18:03;2.80;;;1.50;;
37203;SDS011;23098;48.054;10.636;2023-07-31T14:20:29;3.03;;;1.60;;
37203;SDS011;23098;48.054;10.636;2023-07-31T14:22:55;3.13;;;1.45;;
37203;SDS011;23098;48.054;10.636;2023-07-31T14:25:20;2.70;;;1.50;;
37203;SDS011;23098;48.054;10.636;2023-07-31T14:27:46;2.25;;;1.30;;
37203;SDS011;23098;48.054;10.636;2023-07-31T14:30:12;3.03;;;1.85;;
37203;SDS011;23098;48.054;10.636;2023-07-31T14:32:37;3.20;;;1.42;;
37203;SDS011;23098;48.054;10.636;2023-07-31T14:35:03;3.97;;;1.50;;
37203;SDS011;23098;48.054;10.636;2023-07-31T14:37:44;3.88;;;1.65;;
37203;SDS011;23098;48.054;10.636;2023-07-31T14:40:11;3.13;;;1.52;;
37203;SDS011;23098;48.054;10.636;2023-07-31T14:42:38;2.75;;;1.70;;
37203;SDS011;23098;48.054;10.636;2023-07-31T14:45:05;2.58;;;1.65;;